sensor_id;sensor_type;location;lat;lon;timestamp;temperature;humidity
22578;DHT22;11455;52.390;13.028;2023-02-18T00:00:57;8.90;1.00
22578;DHT22;11455;52.390;13.028;2023-02-18T00:03:26;8.90;1.00
22578;DHT22;11455;52.390;13.028;2023-02-18T00:05:52;8.80;1.00
22578;DHT22;11455;52.390;13.028;2023-02-18T00:08:18;8.80;1.00
22578;DHT22;11455;52.390;13.028;2023-02-18T00:10:44;8.80;1.00
22578;DHT22;11455;52.390;13.028;2023-02-18T00:13:10;8.80;1.00
22578;DHT22;11455;52.390;13.028;2023-02-18T00:15:36;8.70;1.00
22578;DHT22;11455;52.390;13.028;2023-02-18T00:18:02;8.80;1.00
22578;DHT22;11455;52.390;13.028;2023-02-18T00:20:28;8.80;1.00
22578;DHT22;11455;52.390;13.028;2023-02-18T00:22:54;8.70;1.00
22578;DHT22;11455;52.390;13.028;2023-02-18T00:25:20;8.80;1.00
22578;DHT22;11455;52.390;13.028;2023-02-18T00:27:45;8.80;1.00
22578;DHT22;11455;52.390;13.028;2023-02-18T00:30:11;8.80;1.00
22578;DHT22;11455;52.390;13.028;2023-02-18T00:32:37;8.80;1.00
22578;DHT22;11455;52.390;13.028;2023-02-18T00:35:05;8.80;1.00
22578;DHT22;11455;52.390;13.028;2023-02-18T00:37:31;8.80;1.00
22578;DHT22;11455;52.390;13.028;2023-02-18T00:39:56;8.80;1.00
22578;DHT22;11455;52.390;13.028;2023-02-18T00:42:22;8.80;1.00
22578;DHT22;11455;52.390;13.028;2023-02-18T00:44:48;8.80;1.00
22578;DHT22;11455;52.390;13.028;2023-02-18T00:47:13;8.70;1.00
22578;DHT22;11455;52.390;13.028;2023-02-18T00:49:39;8.70;1.00
22578;DHT22;11455;52.390;13.028;2023-02-18T00:52:05;8.70;1.00
22578;DHT22;11455;52.390;13.028;2023-02-18T00:54:33;8.70;1.00
22578;DHT22;11455;52.390;13.028;2023-02-18T00:56:59;8.70;1.00
22578;DHT22;11455;52.390;13.028;2023-02-18T00:59:25;8.70;1.00
22578;DHT22;11455;52.390;13.028;2023-02-18T01:01:50;8.60;1.00
22578;DHT22;11455;52.390;13.028;2023-02-18T01:04:16;8.60;1.00
22578;DHT22;11455;52.390;13.028;2023-02-18T01:06:42;8.60;1.00
22578;DHT22;11455;52.390;13.028;2023-02-18T01:09:08;8.50;1.00
22578;DHT22;11455;52.390;13.028;2023-02-18T01:11:34;8.50;1.00
22578;DHT22;11455;52.390;13.028;2023-02-18T01:13:59;8.50;1.00
22578;DHT22;11455;52.390;13.028;2023-02-18T01:16:30;8.50;1.00
22578;DHT22;11455;52.390;13.028;2023-02-18T01:18:56;8.50;1.00
22578;DHT22;11455;52.390;13.028;2023-02-18T01:21:21;8.60;1.00
22578;DHT22;11455;52.390;13.028;2023-02-18T01:23:48;8.50;1.00
22578;DHT22;11455;52.390;13.028;2023-02-18T01:26:16;8.60;1.00
22578;DHT22;11455;52.390;13.028;2023-02-18T01:28:42;8.60;1.00
22578;DHT22;11455;52.390;13.028;2023-02-18T01:31:09;8.50;1.00
22578;DHT22;11455;52.390;13.028;2023-02-18T01:33:35;8.40;1.00
22578;DHT22;11455;52.390;13.028;2023-02-18T01:36:02;8.40;1.00
22578;DHT22;11455;52.390;13.028;2023-02-18T01:38:27;8.40;1.00
22578;DHT22;11455;52.390;13.028;2023-02-18T01:40:53;8.40;1.00
22578;DHT22;11455;52.390;13.028;2023-02-18T01:43:20;8.40;1.00
22578;DHT22;11455;52.390;13.028;2023-02-18T01:50:58;8.50;1.00
22578;DHT22;11455;52.390;13.028;2023-02-18T01:53:45;8.50;1.00
22578;DHT22;11455;52.390;13.028;2023-02-18T01:56:13;8.50;1.00
22578;DHT22;11455;52.390;13.028;2023-02-18T01:58:41;8.50;1.00
22578;DHT22;11455;52.390;13.028;2023-02-18T02:01:07;8.40;1.00
22578;DHT22;11455;52.390;13.028;2023-02-18T02:03:33;8.40;1.00
22578;DHT22;11455;52.390;13.028;2023-02-18T02:05:59;8.40;1.00
22578;DHT22;11455;52.390;13.028;2023-02-18T02:08:25;8.40;1.00
22578;DHT22;11455;52.390;13.028;2023-02-18T02:16:10;8.40;1.00
22578;DHT22;11455;52.390;13.028;2023-02-18T02:18:46;8.40;1.00
22578;DHT22;11455;52.390;13.028;2023-02-18T02:21:34;8.50;1.00
22578;DHT22;11455;52.390;13.028;2023-02-18T02:34:35;8.40;1.00
22578;DHT22;11455;52.390;13.028;2023-02-18T02:44:53;8.30;1.00
22578;DHT22;11455;52.390;13.028;2023-02-18T02:47:24;8.30;1.00
22578;DHT22;11455;52.390;13.028;2023-02-18T02:50:08;8.30;1.00
22578;DHT22;11455;52.390;13.028;2023-02-18T02:52:37;8.30;1.00
22578;DHT22;11455;52.390;13.028;2023-02-18T02:55:08;8.20;1.00
22578;DHT22;11455;52.390;13.028;2023-02-18T02:57:42;8.30;1.00
22578;DHT22;11455;52.390;13.028;2023-02-18T03:00:13;8.30;1.00
22578;DHT22;11455;52.390;13.028;2023-02-18T03:05:37;8.30;1.00
22578;DHT22;11455;52.390;13.028;2023-02-18T03:20:55;8.20;1.00
22578;DHT22;11455;52.390;13.028;2023-02-18T03:23:24;8.20;1.00
22578;DHT22;11455;52.390;13.028;2023-02-18T03:25:51;8.30;1.00
22578;DHT22;11455;52.390;13.028;2023-02-18T03:28:18;8.30;1.00
22578;DHT22;11455;52.390;13.028;2023-02-18T03:30:49;8.20;1.00
22578;DHT22;11455;52.390;13.028;2023-02-18T03:33:17;8.30;1.00
22578;DHT22;11455;52.390;13.028;2023-02-18T03:35:44;8.20;1.00
22578;DHT22;11455;52.390;13.028;2023-02-18T03:38:13;8.20;1.00
22578;DHT22;11455;52.390;13.028;2023-02-18T03:40:40;8.30;1.00
22578;DHT22;11455;52.390;13.028;2023-02-18T03:43:06;8.30;1.00
22578;DHT22;11455;52.390;13.028;2023-02-18T03:45:32;8.20;1.00
22578;DHT22;11455;52.390;13.028;2023-02-18T03:47:57;8.20;1.00
22578;DHT22;11455;52.390;13.028;2023-02-18T03:50:23;8.20;1.00
22578;DHT22;11455;52.390;13.028;2023-02-18T03:52:49;8.20;1.00
22578;DHT22;11455;52.390;13.028;2023-02-18T03:55:15;8.20;1.00
22578;DHT22;11455;52.390;13.028;2023-02-18T03:57:40;8.30;1.00
22578;DHT22;11455;52.390;13.028;2023-02-18T04:00:07;8.30;1.00
22578;DHT22;11455;52.390;13.028;2023-02-18T04:02:40;8.30;1.00
22578;DHT22;11455;52.390;13.028;2023-02-18T04:05:06;8.30;1.00
22578;DHT22;11455;52.390;13.028;2023-02-18T04:07:32;8.40;1.00
22578;DHT22;11455;52.390;13.028;2023-02-18T04:09:57;8.40;1.00
22578;DHT22;11455;52.390;13.028;2023-02-18T04:12:23;8.40;1.00
22578;DHT22;11455;52.390;13.028;2023-02-18T04:14:48;8.40;1.00
22578;DHT22;11455;52.390;13.028;2023-02-18T04:17:17;8.40;1.00
22578;DHT22;11455;52.390;13.028;2023-02-18T04:19:43;8.30;1.00
22578;DHT22;11455;52.390;13.028;2023-02-18T04:22:09;8.30;1.00
22578;DHT22;11455;52.390;13.028;2023-02-18T04:24:34;8.30;1.00
22578;DHT22;11455;52.390;13.028;2023-02-18T04:27:00;8.30;1.00
22578;DHT22;11455;52.390;13.028;2023-02-18T04:29:25;8.30;1.00
22578;DHT22;11455;52.390;13.028;2023-02-18T04:31:51;8.30;1.00
22578;DHT22;11455;52.390;13.028;2023-02-18T04:34:17;8.30;1.00
22578;DHT22;11455;52.390;13.028;2023-02-18T04:36:42;8.30;1.00
22578;DHT22;11455;52.390;13.028;2023-02-18T04:39:08;8.40;1.00
22578;DHT22;11455;52.390;13.028;2023-02-18T04:41:33;8.40;1.00
22578;DHT22;11455;52.390;13.028;2023-02-18T04:43:59;8.40;1.00
22578;DHT22;11455;52.390;13.028;2023-02-18T04:46:25;8.40;1.00
22578;DHT22;11455;52.390;13.028;2023-02-18T04:48:51;8.40;1.00
22578;DHT22;11455;52.390;13.028;2023-02-18T04:51:17;8.50;1.00
22578;DHT22;11455;52.390;13.028;2023-02-18T04:53:42;8.50;1.00
22578;DHT22;11455;52.390;13.028;2023-02-18T04:56:08;8.60;1.00
22578;DHT22;11455;52.390;13.028;2023-02-18T04:58:34;8.60;1.00
22578;DHT22;11455;52.390;13.028;2023-02-18T05:01:00;8.60;1.00
22578;DHT22;11455;52.390;13.028;2023-02-18T05:03:26;8.70;1.00
22578;DHT22;11455;52.390;13.028;2023-02-18T05:05:52;8.70;1.00
22578;DHT22;11455;52.390;13.028;2023-02-18T05:08:18;8.60;1.00
22578;DHT22;11455;52.390;13.028;2023-02-18T05:10:44;8.60;1.00
22578;DHT22;11455;52.390;13.028;2023-02-18T05:13:09;8.60;1.00
22578;DHT22;11455;52.390;13.028;2023-02-18T05:15:35;8.60;1.00
22578;DHT22;11455;52.390;13.028;2023-02-18T05:18:01;8.70;1.00
22578;DHT22;11455;52.390;13.028;2023-02-18T05:20:27;8.70;1.00
22578;DHT22;11455;52.390;13.028;2023-02-18T05:22:52;8.70;1.00
22578;DHT22;11455;52.390;13.028;2023-02-18T05:25:18;8.70;1.00
22578;DHT22;11455;52.390;13.028;2023-02-18T05:27:44;8.70;1.00
22578;DHT22;11455;52.390;13.028;2023-02-18T05:30:09;8.70;1.00
22578;DHT22;11455;52.390;13.028;2023-02-18T05:32:35;8.80;1.00
22578;DHT22;11455;52.390;13.028;2023-02-18T05:35:01;8.70;1.00
22578;DHT22;11455;52.390;13.028;2023-02-18T05:37:26;8.80;1.00
22578;DHT22;11455;52.390;13.028;2023-02-18T05:39:55;8.80;1.00
22578;DHT22;11455;52.390;13.028;2023-02-18T05:42:20;8.80;1.00
22578;DHT22;11455;52.390;13.028;2023-02-18T05:44:47;8.70;1.00
22578;DHT22;11455;52.390;13.028;2023-02-18T05:47:13;8.80;1.00
22578;DHT22;11455;52.390;13.028;2023-02-18T05:49:39;8.80;1.00
22578;DHT22;11455;52.390;13.028;2023-02-18T05:52:05;8.80;1.00
22578;DHT22;11455;52.390;13.028;2023-02-18T05:54:31;8.80;1.00
22578;DHT22;11455;52.390;13.028;2023-02-18T05:56:57;8.80;1.00
22578;DHT22;11455;52.390;13.028;2023-02-18T05:59:28;8.80;1.00
22578;DHT22;11455;52.390;13.028;2023-02-18T06:01:53;8.80;1.00
22578;DHT22;11455;52.390;13.028;2023-02-18T06:04:19;8.80;1.00
22578;DHT22;11455;52.390;13.028;2023-02-18T06:06:45;8.80;1.00
22578;DHT22;11455;52.390;13.028;2023-02-18T06:09:11;8.80;1.00
22578;DHT22;11455;52.390;13.028;2023-02-18T06:11:36;8.80;1.00
22578;DHT22;11455;52.390;13.028;2023-02-18T06:14:02;8.80;1.00
22578;DHT22;11455;52.390;13.028;2023-02-18T06:16:28;8.70;1.00
22578;DHT22;11455;52.390;13.028;2023-02-18T06:18:54;8.70;1.00
22578;DHT22;11455;52.390;13.028;2023-02-18T06:21:19;8.70;1.00
22578;DHT22;11455;52.390;13.028;2023-02-18T06:23:45;8.60;1.00
22578;DHT22;11455;52.390;13.028;2023-02-18T06:26:11;8.60;1.00
22578;DHT22;11455;52.390;13.028;2023-02-18T06:28:37;8.60;1.00
22578;DHT22;11455;52.390;13.028;2023-02-18T06:31:05;8.60;1.00
22578;DHT22;11455;52.390;13.028;2023-02-18T06:33:31;8.60;1.00
22578;DHT22;11455;52.390;13.028;2023-02-18T06:36:00;8.60;1.00
22578;DHT22;11455;52.390;13.028;2023-02-18T06:38:26;8.70;1.00
22578;DHT22;11455;52.390;13.028;2023-02-18T06:40:52;8.70;1.00
22578;DHT22;11455;52.390;13.028;2023-02-18T06:43:18;8.60;1.00
22578;DHT22;11455;52.390;13.028;2023-02-18T06:45:44;8.60;1.00
22578;DHT22;11455;52.390;13.028;2023-02-18T06:48:10;8.70;1.00
22578;DHT22;11455;52.390;13.028;2023-02-18T06:50:36;8.70;1.00
22578;DHT22;11455;52.390;13.028;2023-02-18T06:53:01;8.80;1.00
22578;DHT22;11455;52.390;13.028;2023-02-18T06:55:27;8.70;1.00
22578;DHT22;11455;52.390;13.028;2023-02-18T06:57:52;8.70;1.00
22578;DHT22;11455;52.390;13.028;2023-02-18T07:00:18;8.80;1.00
22578;DHT22;11455;52.390;13.028;2023-02-18T07:02:44;8.80;1.00
22578;DHT22;11455;52.390;13.028;2023-02-18T07:05:10;8.80;1.00
22578;DHT22;11455;52.390;13.028;2023-02-18T07:07:35;8.80;1.00
22578;DHT22;11455;52.390;13.028;2023-02-18T07:10:01;8.80;1.00
22578;DHT22;11455;52.390;13.028;2023-02-18T07:12:27;8.80;2.40
22578;DHT22;11455;52.390;13.028;2023-02-18T07:14:52;8.80;7.40
22578;DHT22;11455;52.390;13.028;2023-02-18T07:17:18;8.80;11.10
22578;DHT22;11455;52.390;13.028;2023-02-18T07:19:44;8.80;18.20
22578;DHT22;11455;52.390;13.028;2023-02-18T07:22:10;8.90;23.30
22578;DHT22;11455;52.390;13.028;2023-02-18T07:24:35;8.90;23.90
22578;DHT22;11455;52.390;13.028;2023-02-18T07:27:01;8.90;32.90
22578;DHT22;11455;52.390;13.028;2023-02-18T07:29:27;9.00;34.00
22578;DHT22;11455;52.390;13.028;2023-02-18T07:31:52;9.00;13.00
22578;DHT22;11455;52.390;13.028;2023-02-18T07:34:18;9.00;12.30
22578;DHT22;11455;52.390;13.028;2023-02-18T07:36:44;9.00;14.60
22578;DHT22;11455;52.390;13.028;2023-02-18T07:39:10;9.00;8.70
22578;DHT22;11455;52.390;13.028;2023-02-18T07:41:35;8.90;22.60
22578;DHT22;11455;52.390;13.028;2023-02-18T07:44:01;8.90;23.50
22578;DHT22;11455;52.390;13.028;2023-02-18T07:46:26;9.00;29.20
22578;DHT22;11455;52.390;13.028;2023-02-18T07:48:52;9.00;31.20
22578;DHT22;11455;52.390;13.028;2023-02-18T07:51:18;9.00;35.60
22578;DHT22;11455;52.390;13.028;2023-02-18T07:53:43;9.10;23.10
22578;DHT22;11455;52.390;13.028;2023-02-18T07:56:09;9.10;22.20
22578;DHT22;11455;52.390;13.028;2023-02-18T07:58:36;9.10;26.30
22578;DHT22;11455;52.390;13.028;2023-02-18T08:01:09;9.10;26.20
22578;DHT22;11455;52.390;13.028;2023-02-18T08:03:35;9.10;28.90
22578;DHT22;11455;52.390;13.028;2023-02-18T08:06:01;9.10;19.90
22578;DHT22;11455;52.390;13.028;2023-02-18T08:08:28;9.20;26.80
22578;DHT22;11455;52.390;13.028;2023-02-18T08:10:55;9.30;27.30
22578;DHT22;11455;52.390;13.028;2023-02-18T08:13:21;9.30;25.10
22578;DHT22;11455;52.390;13.028;2023-02-18T08:15:46;9.30;1.00
22578;DHT22;11455;52.390;13.028;2023-02-18T08:18:16;9.30;1.00
22578;DHT22;11455;52.390;13.028;2023-02-18T08:20:42;9.40;1.00
22578;DHT22;11455;52.390;13.028;2023-02-18T08:23:08;9.40;16.70
22578;DHT22;11455;52.390;13.028;2023-02-18T08:25:34;9.40;21.40
22578;DHT22;11455;52.390;13.028;2023-02-18T08:28:02;9.50;1.50
22578;DHT22;11455;52.390;13.028;2023-02-18T08:30:28;9.50;1.40
22578;DHT22;11455;52.390;13.028;2023-02-18T08:32:54;9.50;11.70
22578;DHT22;11455;52.390;13.028;2023-02-18T08:35:19;9.50;38.40
22578;DHT22;11455;52.390;13.028;2023-02-18T08:37:45;9.50;22.00
22578;DHT22;11455;52.390;13.028;2023-02-18T08:40:11;9.50;29.20
22578;DHT22;11455;52.390;13.028;2023-02-18T08:42:38;9.60;33.80
22578;DHT22;11455;52.390;13.028;2023-02-18T08:45:04;9.60;54.00
22578;DHT22;11455;52.390;13.028;2023-02-18T08:47:30;9.60;68.20
22578;DHT22;11455;52.390;13.028;2023-02-18T08:49:55;9.60;47.50
22578;DHT22;11455;52.390;13.028;2023-02-18T08:52:21;9.60;83.40
22578;DHT22;11455;52.390;13.028;2023-02-18T08:54:47;9.50;68.90
22578;DHT22;11455;52.390;13.028;2023-02-18T08:57:12;9.60;87.50
22578;DHT22;11455;52.390;13.028;2023-02-18T08:59:38;9.50;57.10
22578;DHT22;11455;52.390;13.028;2023-02-18T09:02:04;9.50;92.50
22578;DHT22;11455;52.390;13.028;2023-02-18T09:04:29;9.50;99.90
22578;DHT22;11455;52.390;13.028;2023-02-18T09:06:55;9.40;99.90
22578;DHT22;11455;52.390;13.028;2023-02-18T09:09:20;9.30;99.90
22578;DHT22;11455;52.390;13.028;2023-02-18T09:11:46;9.30;99.90
22578;DHT22;11455;52.390;13.028;2023-02-18T09:14:12;9.20;99.90
22578;DHT22;11455;52.390;13.028;2023-02-18T09:16:38;9.20;99.90
22578;DHT22;11455;52.390;13.028;2023-02-18T09:19:05;9.20;99.90
22578;DHT22;11455;52.390;13.028;2023-02-18T09:21:31;9.10;99.90
22578;DHT22;11455;52.390;13.028;2023-02-18T09:23:56;9.10;99.90
22578;DHT22;11455;52.390;13.028;2023-02-18T09:26:22;9.10;99.90
22578;DHT22;11455;52.390;13.028;2023-02-18T09:28:49;9.00;99.90
22578;DHT22;11455;52.390;13.028;2023-02-18T09:31:17;9.00;99.90
22578;DHT22;11455;52.390;13.028;2023-02-18T09:33:44;9.00;99.90
22578;DHT22;11455;52.390;13.028;2023-02-18T09:36:10;9.10;99.90
22578;DHT22;11455;52.390;13.028;2023-02-18T09:38:36;9.00;99.90
22578;DHT22;11455;52.390;13.028;2023-02-18T09:41:02;9.10;99.90
22578;DHT22;11455;52.390;13.028;2023-02-18T09:43:32;9.10;99.90
22578;DHT22;11455;52.390;13.028;2023-02-18T09:46:00;9.10;99.90
22578;DHT22;11455;52.390;13.028;2023-02-18T09:48:27;9.00;99.90
22578;DHT22;11455;52.390;13.028;2023-02-18T09:50:54;9.00;99.90
22578;DHT22;11455;52.390;13.028;2023-02-18T09:53:20;9.00;99.90
22578;DHT22;11455;52.390;13.028;2023-02-18T09:55:46;9.00;99.90
22578;DHT22;11455;52.390;13.028;2023-02-18T09:58:13;9.00;99.90
22578;DHT22;11455;52.390;13.028;2023-02-18T10:00:48;9.10;99.90
22578;DHT22;11455;52.390;13.028;2023-02-18T10:08:33;9.10;99.90
22578;DHT22;11455;52.390;13.028;2023-02-18T10:11:00;9.10;99.90
22578;DHT22;11455;52.390;13.028;2023-02-18T10:13:30;9.20;99.90
22578;DHT22;11455;52.390;13.028;2023-02-18T10:15:56;9.20;99.90
22578;DHT22;11455;52.390;13.028;2023-02-18T10:18:30;9.10;99.90
22578;DHT22;11455;52.390;13.028;2023-02-18T10:20:57;9.10;99.90
22578;DHT22;11455;52.390;13.028;2023-02-18T10:23:24;9.10;99.90
22578;DHT22;11455;52.390;13.028;2023-02-18T10:25:51;9.20;99.90
22578;DHT22;11455;52.390;13.028;2023-02-18T10:28:17;9.20;99.90
22578;DHT22;11455;52.390;13.028;2023-02-18T10:30:49;9.30;99.90
22578;DHT22;11455;52.390;13.028;2023-02-18T10:33:31;9.30;99.90
22578;DHT22;11455;52.390;13.028;2023-02-18T10:43:42;9.30;99.90
22578;DHT22;11455;52.390;13.028;2023-02-18T10:51:16;9.40;99.90
22578;DHT22;11455;52.390;13.028;2023-02-18T10:53:44;9.40;99.90
22578;DHT22;11455;52.390;13.028;2023-02-18T10:59:00;9.40;99.90
22578;DHT22;11455;52.390;13.028;2023-02-18T11:01:26;9.40;99.90
22578;DHT22;11455;52.390;13.028;2023-02-18T11:04:02;9.40;99.90
22578;DHT22;11455;52.390;13.028;2023-02-18T11:06:30;9.30;1.00
22578;DHT22;11455;52.390;13.028;2023-02-18T11:08:56;9.30;1.00
22578;DHT22;11455;52.390;13.028;2023-02-18T11:11:23;9.20;1.00
22578;DHT22;11455;52.390;13.028;2023-02-18T11:14:08;9.10;1.00
22578;DHT22;11455;52.390;13.028;2023-02-18T11:16:41;9.10;1.00
22578;DHT22;11455;52.390;13.028;2023-02-18T11:21:51;9.10;1.00
22578;DHT22;11455;52.390;13.028;2023-02-18T11:24:30;9.10;1.00
22578;DHT22;11455;52.390;13.028;2023-02-18T11:26:56;9.10;1.00
22578;DHT22;11455;52.390;13.028;2023-02-18T11:29:23;9.00;1.00
22578;DHT22;11455;52.390;13.028;2023-02-18T11:31:55;9.00;1.00
22578;DHT22;11455;52.390;13.028;2023-02-18T11:34:22;9.00;1.00
22578;DHT22;11455;52.390;13.028;2023-02-18T11:36:48;9.00;1.00
22578;DHT22;11455;52.390;13.028;2023-02-18T11:42:10;9.10;1.00
22578;DHT22;11455;52.390;13.028;2023-02-18T11:49:27;9.30;1.00
22578;DHT22;11455;52.390;13.028;2023-02-18T11:51:54;9.30;1.00
22578;DHT22;11455;52.390;13.028;2023-02-18T11:54:28;9.30;1.00
22578;DHT22;11455;52.390;13.028;2023-02-18T11:56:59;9.40;1.00
22578;DHT22;11455;52.390;13.028;2023-02-18T11:59:27;9.50;1.00
22578;DHT22;11455;52.390;13.028;2023-02-18T12:01:56;9.60;1.00
22578;DHT22;11455;52.390;13.028;2023-02-18T12:04:26;9.60;1.00
22578;DHT22;11455;52.390;13.028;2023-02-18T12:07:11;9.60;1.00
22578;DHT22;11455;52.390;13.028;2023-02-18T12:09:42;9.60;1.00
22578;DHT22;11455;52.390;13.028;2023-02-18T12:12:16;9.70;1.00
22578;DHT22;11455;52.390;13.028;2023-02-18T12:14:44;9.80;1.00
22578;DHT22;11455;52.390;13.028;2023-02-18T12:27:17;10.30;1.00
22578;DHT22;11455;52.390;13.028;2023-02-18T12:29:49;10.40;1.00
22578;DHT22;11455;52.390;13.028;2023-02-18T12:32:29;10.40;1.00
22578;DHT22;11455;52.390;13.028;2023-02-18T12:48:07;10.80;1.00
22578;DHT22;11455;52.390;13.028;2023-02-18T13:04:46;11.00;1.00
22578;DHT22;11455;52.390;13.028;2023-02-18T13:09:23;11.10;1.00
22578;DHT22;11455;52.390;13.028;2023-02-18T13:14:26;11.20;1.00
22578;DHT22;11455;52.390;13.028;2023-02-18T13:16:54;11.20;1.00
22578;DHT22;11455;52.390;13.028;2023-02-18T13:19:24;11.20;1.00
22578;DHT22;11455;52.390;13.028;2023-02-18T13:21:52;11.20;1.00
22578;DHT22;11455;52.390;13.028;2023-02-18T13:24:37;11.20;1.00
22578;DHT22;11455;52.390;13.028;2023-02-18T13:29:41;11.30;1.00
22578;DHT22;11455;52.390;13.028;2023-02-18T13:35:21;11.30;1.00
22578;DHT22;11455;52.390;13.028;2023-02-18T13:37:39;11.30;1.00
22578;DHT22;11455;52.390;13.028;2023-02-18T13:40:13;11.20;1.00
22578;DHT22;11455;52.390;13.028;2023-02-18T13:42:42;11.20;1.00
22578;DHT22;11455;52.390;13.028;2023-02-18T13:45:24;11.20;1.00
22578;DHT22;11455;52.390;13.028;2023-02-18T13:47:51;11.10;1.00
22578;DHT22;11455;52.390;13.028;2023-02-18T13:57:58;11.10;1.00
22578;DHT22;11455;52.390;13.028;2023-02-18T14:00:25;11.10;1.00
22578;DHT22;11455;52.390;13.028;2023-02-18T14:02:59;11.10;1.00
22578;DHT22;11455;52.390;13.028;2023-02-18T14:05:37;11.10;1.00
22578;DHT22;11455;52.390;13.028;2023-02-18T14:08:13;11.10;1.00
22578;DHT22;11455;52.390;13.028;2023-02-18T14:10:39;11.10;1.00
22578;DHT22;11455;52.390;13.028;2023-02-18T14:13:18;11.10;1.00
22578;DHT22;11455;52.390;13.028;2023-02-18T14:15:47;11.00;1.00
22578;DHT22;11455;52.390;13.028;2023-02-18T14:33:44;11.00;1.00
22578;DHT22;11455;52.390;13.028;2023-02-18T14:51:48;11.00;1.00
22578;DHT22;11455;52.390;13.028;2023-02-18T14:54:15;11.10;1.00
22578;DHT22;11455;52.390;13.028;2023-02-18T14:56:49;11.10;1.00
22578;DHT22;11455;52.390;13.028;2023-02-18T14:59:16;11.10;1.00
22578;DHT22;11455;52.390;13.028;2023-02-18T15:01:45;11.10;1.00
22578;DHT22;11455;52.390;13.028;2023-02-18T15:04:11;11.10;1.00
22578;DHT22;11455;52.390;13.028;2023-02-18T15:06:38;11.10;1.00
22578;DHT22;11455;52.390;13.028;2023-02-18T15:09:14;11.10;1.00
22578;DHT22;11455;52.390;13.028;2023-02-18T15:11:48;11.10;1.00
22578;DHT22;11455;52.390;13.028;2023-02-18T15:14:19;11.10;1.00
22578;DHT22;11455;52.390;13.028;2023-02-18T15:16:45;11.10;1.00
22578;DHT22;11455;52.390;13.028;2023-02-18T15:19:12;11.20;1.00
22578;DHT22;11455;52.390;13.028;2023-02-18T15:21:41;11.10;1.00
22578;DHT22;11455;52.390;13.028;2023-02-18T15:24:10;11.10;1.00
22578;DHT22;11455;52.390;13.028;2023-02-18T15:26:42;11.00;1.00
22578;DHT22;11455;52.390;13.028;2023-02-18T15:29:14;11.00;1.00
22578;DHT22;11455;52.390;13.028;2023-02-18T15:31:40;11.00;1.00
22578;DHT22;11455;52.390;13.028;2023-02-18T15:36:48;11.00;1.00
22578;DHT22;11455;52.390;13.028;2023-02-18T15:39:16;11.00;1.00
22578;DHT22;11455;52.390;13.028;2023-02-18T15:41:44;11.00;1.00
22578;DHT22;11455;52.390;13.028;2023-02-18T15:44:20;11.00;1.00
22578;DHT22;11455;52.390;13.028;2023-02-18T15:46:46;11.10;1.00
22578;DHT22;11455;52.390;13.028;2023-02-18T15:49:13;11.10;1.00
22578;DHT22;11455;52.390;13.028;2023-02-18T15:51:40;11.10;1.00
22578;DHT22;11455;52.390;13.028;2023-02-18T15:54:10;11.00;1.00
22578;DHT22;11455;52.390;13.028;2023-02-18T15:56:38;11.00;1.00
22578;DHT22;11455;52.390;13.028;2023-02-18T15:59:08;11.00;1.00
22578;DHT22;11455;52.390;13.028;2023-02-18T16:01:34;11.10;1.00
22578;DHT22;11455;52.390;13.028;2023-02-18T16:04:00;11.10;1.00
22578;DHT22;11455;52.390;13.028;2023-02-18T16:06:27;11.10;1.00
22578;DHT22;11455;52.390;13.028;2023-02-18T16:09:13;11.10;1.00
22578;DHT22;11455;52.390;13.028;2023-02-18T16:11:43;11.10;1.00
22578;DHT22;11455;52.390;13.028;2023-02-18T16:17:05;11.10;1.00
22578;DHT22;11455;52.390;13.028;2023-02-18T16:19:31;11.10;1.00
22578;DHT22;11455;52.390;13.028;2023-02-18T16:21:57;11.10;1.00
22578;DHT22;11455;52.390;13.028;2023-02-18T16:24:28;11.10;1.00
22578;DHT22;11455;52.390;13.028;2023-02-18T16:26:57;11.10;1.00
22578;DHT22;11455;52.390;13.028;2023-02-18T16:29:25;11.10;1.00
22578;DHT22;11455;52.390;13.028;2023-02-18T16:31:51;11.00;1.00
22578;DHT22;11455;52.390;13.028;2023-02-18T16:34:17;11.00;1.00
22578;DHT22;11455;52.390;13.028;2023-02-18T16:36:43;11.00;1.00
22578;DHT22;11455;52.390;13.028;2023-02-18T16:39:28;10.90;1.00
22578;DHT22;11455;52.390;13.028;2023-02-18T16:41:54;10.90;1.00
22578;DHT22;11455;52.390;13.028;2023-02-18T16:44:20;10.90;1.00
22578;DHT22;11455;52.390;13.028;2023-02-18T16:46:45;10.90;1.00
22578;DHT22;11455;52.390;13.028;2023-02-18T16:49:11;10.90;1.00
22578;DHT22;11455;52.390;13.028;2023-02-18T16:51:38;10.90;1.00
22578;DHT22;11455;52.390;13.028;2023-02-18T16:54:04;10.90;1.00
22578;DHT22;11455;52.390;13.028;2023-02-18T16:56:31;10.90;1.00
22578;DHT22;11455;52.390;13.028;2023-02-18T16:58:57;10.90;1.00
22578;DHT22;11455;52.390;13.028;2023-02-18T17:03:49;10.90;1.00
22578;DHT22;11455;52.390;13.028;2023-02-18T17:06:17;10.90;1.00
22578;DHT22;11455;52.390;13.028;2023-02-18T17:08:43;10.90;1.00
22578;DHT22;11455;52.390;13.028;2023-02-18T17:11:31;10.90;1.00
22578;DHT22;11455;52.390;13.028;2023-02-18T17:13:55;10.90;1.00
22578;DHT22;11455;52.390;13.028;2023-02-18T17:16:24;10.80;1.00
22578;DHT22;11455;52.390;13.028;2023-02-18T17:18:49;10.90;1.00
22578;DHT22;11455;52.390;13.028;2023-02-18T17:21:16;10.90;1.00
22578;DHT22;11455;52.390;13.028;2023-02-18T17:23:42;10.90;1.00
22578;DHT22;11455;52.390;13.028;2023-02-18T17:26:13;10.90;1.00
22578;DHT22;11455;52.390;13.028;2023-02-18T17:28:39;10.90;1.00
22578;DHT22;11455;52.390;13.028;2023-02-18T17:31:05;10.80;1.00
22578;DHT22;11455;52.390;13.028;2023-02-18T17:33:33;10.80;1.00
22578;DHT22;11455;52.390;13.028;2023-02-18T17:35:59;10.80;1.00
22578;DHT22;11455;52.390;13.028;2023-02-18T17:38:25;10.80;1.00
22578;DHT22;11455;52.390;13.028;2023-02-18T17:40:51;10.80;1.00
22578;DHT22;11455;52.390;13.028;2023-02-18T17:43:16;10.70;1.00
22578;DHT22;11455;52.390;13.028;2023-02-18T17:45:45;10.70;1.00
22578;DHT22;11455;52.390;13.028;2023-02-18T17:48:13;10.70;1.00
22578;DHT22;11455;52.390;13.028;2023-02-18T17:50:39;10.60;1.00
22578;DHT22;11455;52.390;13.028;2023-02-18T17:53:05;10.40;1.00
22578;DHT22;11455;52.390;13.028;2023-02-18T17:55:31;10.30;1.00
22578;DHT22;11455;52.390;13.028;2023-02-18T17:57:58;10.10;1.00
22578;DHT22;11455;52.390;13.028;2023-02-18T18:00:25;9.90;1.00
22578;DHT22;11455;52.390;13.028;2023-02-18T18:02:51;9.90;1.00
22578;DHT22;11455;52.390;13.028;2023-02-18T18:05:18;9.80;1.00
22578;DHT22;11455;52.390;13.028;2023-02-18T18:07:44;9.70;1.00
22578;DHT22;11455;52.390;13.028;2023-02-18T18:10:10;9.70;1.00
22578;DHT22;11455;52.390;13.028;2023-02-18T18:12:38;9.70;1.00
22578;DHT22;11455;52.390;13.028;2023-02-18T18:15:11;9.60;1.00
22578;DHT22;11455;52.390;13.028;2023-02-18T18:17:41;9.60;1.00
22578;DHT22;11455;52.390;13.028;2023-02-18T18:20:07;9.50;1.00
22578;DHT22;11455;52.390;13.028;2023-02-18T18:22:33;9.50;1.00
22578;DHT22;11455;52.390;13.028;2023-02-18T18:24:58;9.40;1.00
22578;DHT22;11455;52.390;13.028;2023-02-18T18:27:24;9.30;1.00
22578;DHT22;11455;52.390;13.028;2023-02-18T18:29:50;9.30;1.00
22578;DHT22;11455;52.390;13.028;2023-02-18T18:32:15;9.20;1.00